This is the latest recevied weather packets stored in our database for station/object OE1HTB-13. If no packets are shown the sender has not sent any weather packets the latest 10 day(s).
| Time | Temp. | Humidity | Pressure | Rain* | Wind** | Luminosity | Snow |
|---|---|---|---|---|---|---|---|
| 1777742171 | 17.78° C | 48% | 1018.7 hPa | 0 mm | - | 16 W/m² | - |
| 1777741272 | 17.78° C | 47% | 1018.8 hPa | 0 mm | - | 18 W/m² | - |
| 1777740371 | 18.33° C | 46% | 1018.8 hPa | 0 mm | - | 21 W/m² | - |
| 1777739473 | 18.89° C | 43% | 1019 hPa | 0 mm | - | 23 W/m² | - |
| 1777738571 | 20° C | 40% | 1019.1 hPa | 0 mm | - | 25 W/m² | - |
| 1777737671 | 20.56° C | 38% | 1019.3 hPa | 0 mm | - | 28 W/m² | - |
| 1777736771 | 21.67° C | 37% | 1019.6 hPa | 0 mm | - | 32 W/m² | - |
| 1777735871 | 22.22° C | 31% | 1019.6 hPa | 0 mm | - | 35 W/m² | - |
| 1777734970 | 22.78° C | 30% | 1019.7 hPa | 0 mm | - | 37 W/m² | - |
| 1777734070 | 24.44° C | 28% | 1019.9 hPa | 0 mm | - | 455 W/m² | - |
| 1777733170 | 24.44° C | 30% | 1020 hPa | 0 mm | - | 499 W/m² | - |
| 1777732275 | 24.44° C | 27% | 1020.1 hPa | 0 mm | - | 534 W/m² | - |
| 1777731375 | 24.44° C | 30% | 1020.3 hPa | 0 mm | - | 575 W/m² | - |
| 1777730475 | 24.44° C | 30% | 1020.4 hPa | 0 mm | - | 612 W/m² | - |
| 1777729574 | 25° C | 31% | 1020.5 hPa | 0 mm | - | 647 W/m² | - |
| 1777728674 | 24.44° C | 33% | 1020.7 hPa | 0 mm | - | 682 W/m² | - |
| 1777727774 | 25° C | 29% | 1020.9 hPa | 0 mm | - | 708 W/m² | - |
| 1777726874 | 24.44° C | 31% | 1021 hPa | 0 mm | - | 737 W/m² | - |
| 1777725974 | 23.89° C | 31% | 1021.2 hPa | 0 mm | - | 761 W/m² | - |
| 1777725074 | 23.33° C | 33% | 1021.6 hPa | 0 mm | - | 775 W/m² | - |
| 1777724174 | 23.33° C | 32% | 1021.7 hPa | 0 mm | - | 798 W/m² | - |
| 1777723274 | 23.89° C | 36% | 1022 hPa | 0 mm | - | 810 W/m² | - |
| 1777722373 | 22.22° C | 36% | 1022.2 hPa | 0 mm | - | 823 W/m² | - |
| 1777721473 | 23.33° C | 33% | 1022.4 hPa | 0 mm | - | 835 W/m² | - |
| 1777720573 | 21.67° C | 36% | 1022.5 hPa | 0 mm | - | 838 W/m² | - |
* Rain latest hour (hover to see other rain measurements)
** Current wind speed in m/s (hover to see current wind gust speed)